Time;durP1;ratioP1;P1;durP2;ratioP2;P2;SDS_P1;SDS_P2;PMS_P1;PMS_P2;Temp;Humidity;BMP_temperature;BMP_pressure;BME280_temperature;BME280_humidity;BME280_pressure;Samples;Min_cycle;Max_cycle;Signal;HPM_P1;HPM_P2
2024/01/19 00:00:15;;;;;;;7.22;2.60;;;;;;;1.94;76.99;99317.66;4973969;28;20049;-78
2024/01/19 00:02:42;;;;;;;11.70;2.40;;;;;;;1.97;77.33;99321.91;4974215;28;20043;-77
2024/01/19 00:05:08;;;;;;;4.15;2.38;;;;;;;2.00;77.47;99328.75;4974028;28;20072;-77
2024/01/19 00:07:35;;;;;;;8.50;2.45;;;;;;;2.01;77.39;99325.25;4956574;28;20043;-78
2024/01/19 00:10:02;;;;;;;6.07;2.85;;;;;;;2.03;77.41;99324.34;4974184;28;20047;-78
2024/01/19 00:12:35;;;;;;;4.07;2.40;;;;;;;2.03;76.40;99321.75;4956356;28;20122;-76
2024/01/19 00:15:09;;;;;;;6.90;2.92;;;;;;;2.00;74.83;99318.38;4957082;28;20074;-78
2024/01/19 00:17:36;;;;;;;7.53;2.47;;;;;;;1.99;75.92;99325.31;4974059;28;20098;-77
2024/01/19 00:20:03;;;;;;;7.78;2.60;;;;;;;1.99;75.67;99327.06;4973650;28;20218;-77
2024/01/19 00:22:30;;;;;;;7.47;2.33;;;;;;;1.95;76.17;99324.53;4973846;28;20147;-78
2024/01/19 00:24:57;;;;;;;7.45;3.20;;;;;;;1.93;75.75;99331.53;4956728;28;20055;-77
2024/01/19 00:27:23;;;;;;;5.47;2.58;;;;;;;1.92;76.20;99331.56;4973721;28;20089;-76
2024/01/19 00:29:50;;;;;;;7.97;2.65;;;;;;;1.90;75.57;99335.94;4973282;28;20050;-77
2024/01/19 00:32:16;;;;;;;6.55;2.40;;;;;;;1.87;76.17;99336.06;4973344;28;20043;-76
2024/01/19 00:34:43;;;;;;;7.45;3.03;;;;;;;1.86;76.00;99334.34;4973701;28;20047;-78
2024/01/19 00:37:10;;;;;;;11.70;3.03;;;;;;;1.83;76.52;99335.25;4973766;28;20051;-78
2024/01/19 00:39:36;;;;;;;7.70;2.95;;;;;;;1.82;76.54;99336.16;4973402;28;20046;-76
2024/01/19 00:42:03;;;;;;;9.85;2.58;;;;;;;1.80;76.04;99338.81;4973476;28;20427;-77
2024/01/19 00:44:30;;;;;;;7.63;2.88;;;;;;;1.80;76.13;99338.81;4973610;28;20086;-78
2024/01/19 00:46:56;;;;;;;6.50;2.40;;;;;;;1.80;75.96;99344.00;4973392;28;20054;-77
2024/01/19 00:49:23;;;;;;;4.90;2.42;;;;;;;1.79;75.94;99329.31;4973362;28;20126;-78
2024/01/19 00:51:50;;;;;;;8.38;2.15;;;;;;;1.77;75.31;99338.91;4972996;28;20122;-78
2024/01/19 00:54:16;;;;;;;3.45;2.22;;;;;;;1.77;75.78;99341.50;4956238;28;20129;-78
2024/01/19 00:56:43;;;;;;;7.53;2.28;;;;;;;1.75;75.56;99347.63;4973299;28;20046;-77
2024/01/19 00:59:09;;;;;;;6.25;2.75;;;;;;;1.73;75.70;99341.63;4973141;28;20042;-76
2024/01/19 01:01:36;;;;;;;4.93;2.58;;;;;;;1.74;76.21;99351.09;4955668;28;20129;-76
2024/01/19 01:04:03;;;;;;;7.13;2.45;;;;;;;1.72;75.50;99350.28;4973250;28;20054;-76
2024/01/19 01:06:30;;;;;;;6.85;2.65;;;;;;;1.69;75.70;99354.66;4973485;28;20056;-79
2024/01/19 01:08:58;;;;;;;4.82;2.53;;;;;;;1.66;75.45;99349.56;4973465;28;20475;-76
2024/01/19 01:11:27;;;;;;;9.18;2.42;;;;;;;1.66;76.04;99362.56;4955608;28;20468;-79
2024/01/19 01:13:54;;;;;;;9.32;2.65;;;;;;;1.64;75.79;99364.31;4972918;28;20616;-77
2024/01/19 01:16:21;;;;;;;5.60;2.13;;;;;;;1.64;76.11;99366.09;4973474;28;20051;-77
2024/01/19 01:18:48;;;;;;;6.00;2.65;;;;;;;1.62;75.93;99368.72;4973272;28;20058;-79
2024/01/19 01:21:14;;;;;;;4.82;2.47;;;;;;;1.62;76.42;99373.03;4955657;28;20039;-78
2024/01/19 01:23:41;;;;;;;6.35;2.28;;;;;;;1.62;76.34;99367.84;4955521;28;20046;-78
2024/01/19 01:26:08;;;;;;;8.60;2.88;;;;;;;1.63;76.87;99372.13;4971948;28;20078;-76
2024/01/19 01:28:34;;;;;;;8.05;2.53;;;;;;;1.63;75.76;99367.81;4973127;28;20476;-78
2024/01/19 01:31:01;;;;;;;3.70;2.28;;;;;;;1.64;75.62;99374.69;4972944;28;20043;-76
2024/01/19 01:33:29;;;;;;;11.52;2.40;;;;;;;1.64;75.77;99373.88;4972588;28;20149;-76
2024/01/19 01:35:56;;;;;;;7.32;2.75;;;;;;;1.65;75.62;99376.38;4955436;28;20444;-77
2024/01/19 01:38:22;;;;;;;7.88;2.42;;;;;;;1.65;75.99;99378.97;4972679;28;20062;-77
2024/01/19 01:40:49;;;;;;;4.97;2.38;;;;;;;1.64;75.89;99379.88;4972535;28;20061;-77
2024/01/19 01:43:24;;;;;;;14.85;3.17;;;;;;;1.65;73.91;99393.72;4972207;28;20453;-77
2024/01/19 01:45:52;;;;;;;5.18;2.40;;;;;;;1.68;76.20;99391.03;4955272;28;20130;-78
2024/01/19 01:48:20;;;;;;;9.68;2.30;;;;;;;1.71;76.90;99400.50;4972413;28;20137;-78
2024/01/19 01:50:48;;;;;;;8.80;2.35;;;;;;;1.74;76.35;99409.03;4972524;28;20090;-78
2024/01/19 01:53:18;;;;;;;7.72;2.25;;;;;;;1.76;76.20;99409.84;4972178;28;20057;-76
2024/01/19 01:55:46;;;;;;;10.63;2.70;;;;;;;1.78;75.35;99413.25;4955367;28;20051;-76
2024/01/19 01:58:15;;;;;;;8.02;2.70;;;;;;;1.81;75.65;99407.13;4954728;28;20539;-79
2024/01/19 02:00:42;;;;;;;7.18;2.50;;;;;;;1.81;76.55;99427.91;4955519;28;20043;-79
2024/01/19 02:03:09;;;;;;;5.20;1.67;;;;;;;1.81;77.27;99433.94;4972078;28;20051;-77
2024/01/19 02:05:36;;;;;;;4.20;2.03;;;;;;;1.81;78.03;99446.06;4972342;28;20055;-79
2024/01/19 02:08:03;;;;;;;8.55;2.63;;;;;;;1.82;77.84;99450.34;4954695;28;20090;-77
2024/01/19 02:10:30;;;;;;;8.45;3.08;;;;;;;1.84;77.28;99455.50;4972476;28;20047;-76
2024/01/19 02:12:57;;;;;;;5.75;2.53;;;;;;;1.86;77.60;99459.78;4954905;28;20089;-78
2024/01/19 02:15:25;;;;;;;7.88;2.92;;;;;;;1.89;77.40;99457.09;4972186;28;20051;-77
2024/01/19 02:17:52;;;;;;;6.25;2.90;;;;;;;1.93;77.90;99457.88;4971833;28;20114;-76
2024/01/19 02:20:20;;;;;;;9.93;2.67;;;;;;;1.95;77.73;99456.09;4972020;28;20498;-77
2024/01/19 02:22:47;;;;;;;5.70;2.72;;;;;;;1.97;78.06;99448.28;4972301;28;20043;-78
2024/01/19 02:25:14;;;;;;;4.40;2.63;;;;;;;1.95;77.64;99446.53;4971893;28;20732;-76
2024/01/19 02:27:41;;;;;;;7.93;2.70;;;;;;;1.93;77.57;99437.97;4971753;28;20035;-78
2024/01/19 02:30:09;;;;;;;6.30;2.78;;;;;;;1.90;77.28;99443.22;4971996;28;20054;-77
2024/01/19 02:32:36;;;;;;;4.65;2.63;;;;;;;1.86;77.58;99438.16;4971682;28;20455;-78
2024/01/19 02:35:04;;;;;;;11.18;3.03;;;;;;;1.80;77.34;99441.78;4971749;28;20046;-79
2024/01/19 02:37:31;;;;;;;6.82;3.08;;;;;;;1.73;77.05;99437.63;4975072;28;20053;-78
2024/01/19 02:40:00;;;;;;;6.25;3.00;;;;;;;1.65;76.92;99443.03;4958573;28;20049;-76
2024/01/19 02:42:29;;;;;;;5.30;2.60;;;;;;;1.58;77.17;99442.31;4975611;28;20062;-76
2024/01/19 02:44:55;;;;;;;6.63;2.97;;;;;;;1.49;77.69;99442.56;4975676;28;20050;-77
2024/01/19 02:47:22;;;;;;;7.68;2.75;;;;;;;1.43;77.32;99438.38;4958342;28;20046;-76
2024/01/19 02:49:49;;;;;;;5.93;2.75;;;;;;;1.37;78.21;99439.34;4958137;28;20213;-76
2024/01/19 02:52:15;;;;;;;7.22;2.67;;;;;;;1.33;78.10;99447.22;4958016;28;20129;-80
2024/01/19 02:54:42;;;;;;;7.25;3.25;;;;;;;1.30;78.46;99442.97;4975547;28;20126;-77
2024/01/19 02:57:08;;;;;;;5.30;2.75;;;;;;;1.28;78.54;99457.72;4975497;28;20051;-77
2024/01/19 02:59:35;;;;;;;6.10;3.22;;;;;;;1.26;78.92;99447.41;4975378;28;20433;-77
2024/01/19 03:02:01;;;;;;;4.07;2.75;;;;;;;1.26;79.10;99449.13;4975522;28;20058;-79
2024/01/19 03:04:28;;;;;;;5.65;2.83;;;;;;;1.25;78.96;99442.25;4975411;28;20121;-78
2024/01/19 03:06:55;;;;;;;5.68;3.20;;;;;;;1.24;78.66;99450.91;4975637;28;20055;-76
2024/01/19 03:09:21;;;;;;;9.00;3.28;;;;;;;1.21;78.94;99444.06;4975126;28;20046;-76
2024/01/19 03:11:48;;;;;;;6.13;2.97;;;;;;;1.21;78.91;99448.38;4956057;29;20306;-78
2024/01/19 03:14:14;;;;;;;7.03;3.10;;;;;;;1.20;78.52;99446.69;4955916;29;20491;-77
2024/01/19 03:16:42;;;;;;;6.80;3.25;;;;;;;1.17;78.55;99466.59;4938948;29;20458;-77
2024/01/19 03:19:09;;;;;;;7.13;3.40;;;;;;;1.15;78.23;99457.16;4949881;28;20090;-77
2024/01/19 03:21:35;;;;;;;5.70;3.30;;;;;;;1.12;78.84;99463.25;4975093;28;20045;-76
2024/01/19 03:24:02;;;;;;;6.80;3.05;;;;;;;1.13;78.74;99461.53;4975156;28;20476;-77
2024/01/19 03:26:29;;;;;;;9.20;3.67;;;;;;;1.10;79.00;99461.59;4975117;28;20133;-76
2024/01/19 03:28:55;;;;;;;8.77;3.97;;;;;;;1.09;78.88;99467.69;4957988;28;20062;-78
2024/01/19 03:31:22;;;;;;;11.35;3.63;;;;;;;1.09;78.82;99485.81;4957658;28;20082;-77
2024/01/19 03:33:49;;;;;;;7.65;3.70;;;;;;;1.09;79.46;99480.63;4974836;28;20106;-78
2024/01/19 03:36:15;;;;;;;6.85;4.25;;;;;;;1.09;79.39;99481.50;4957721;28;20471;-76
2024/01/19 03:38:43;;;;;;;7.60;4.60;;;;;;;1.11;79.81;99489.22;4957379;28;20047;-79
2024/01/19 03:41:10;;;;;;;7.32;4.25;;;;;;;1.15;80.31;99486.53;4974800;28;20055;-77
2024/01/19 03:43:36;;;;;;;4.97;3.67;;;;;;;1.19;80.63;99497.69;4974622;28;20043;-78
2024/01/19 03:46:03;;;;;;;11.57;5.20;;;;;;;1.26;80.56;99495.78;4957476;28;20042;-78
2024/01/19 03:48:30;;;;;;;7.25;4.65;;;;;;;1.30;80.50;99487.94;4974253;28;20043;-77
2024/01/19 03:50:57;;;;;;;7.63;4.80;;;;;;;1.36;80.66;99491.25;4974490;28;20082;-78
2024/01/19 03:53:23;;;;;;;8.63;4.53;;;;;;;1.40;80.00;99490.31;4974279;28;20049;-77
2024/01/19 03:55:50;;;;;;;9.85;4.72;;;;;;;1.43;79.72;99498.03;4974540;28;20047;-77
2024/01/19 03:58:16;;;;;;;8.88;4.90;;;;;;;1.47;79.36;99502.25;4974618;28;20097;-76
2024/01/19 04:00:43;;;;;;;8.68;5.15;;;;;;;1.49;79.29;99508.22;4973915;28;20118;-78
2024/01/19 04:03:09;;;;;;;9.90;4.72;;;;;;;1.51;78.63;99503.00;4957280;28;20055;-76
2024/01/19 04:05:36;;;;;;;10.38;4.85;;;;;;;1.53;78.18;99496.06;4957246;28;20053;-76
2024/01/19 04:08:03;;;;;;;10.43;5.03;;;;;;;1.52;78.01;99500.38;4974524;28;20077;-77
2024/01/19 04:10:30;;;;;;;7.32;4.70;;;;;;;1.50;77.92;99507.34;4973796;28;20576;-78
2024/01/19 04:12:56;;;;;;;9.48;4.57;;;;;;;1.49;77.94;99515.19;4956609;28;20054;-76
2024/01/19 04:15:23;;;;;;;9.63;4.68;;;;;;;1.46;77.56;99516.06;4973704;28;20039;-77
2024/01/19 04:17:49;;;;;;;7.15;4.53;;;;;;;1.45;77.43;99516.16;4974178;28;20054;-78
2024/01/19 04:20:16;;;;;;;10.90;5.22;;;;;;;1.41;78.15;99518.81;4973931;28;20042;-77
2024/01/19 04:22:43;;;;;;;9.80;4.78;;;;;;;1.40;78.14;99524.00;4973600;28;20142;-77
2024/01/19 04:25:09;;;;;;;9.50;4.90;;;;;;;1.38;78.16;99524.03;4973970;28;20089;-76
2024/01/19 04:27:37;;;;;;;12.05;4.78;;;;;;;1.38;77.56;99531.00;4973790;28;20039;-76
2024/01/19 04:30:04;;;;;;;9.35;5.13;;;;;;;1.39;78.62;99532.69;4974153;28;20051;-77
2024/01/19 04:32:31;;;;;;;7.20;5.20;;;;;;;1.38;77.76;99541.38;4973702;28;20471;-77
2024/01/19 04:34:58;;;;;;;6.95;4.82;;;;;;;1.38;77.67;99536.19;4973721;28;20138;-76
2024/01/19 04:37:24;;;;;;;7.63;4.85;;;;;;;1.37;77.78;99547.41;4973403;28;20105;-76
2024/01/19 04:39:51;;;;;;;7.60;4.88;;;;;;;1.38;79.16;99555.16;4973940;28;20050;-76
2024/01/19 04:42:17;;;;;;;9.98;5.65;;;;;;;1.38;78.87;99560.34;4973434;28;20077;-79
2024/01/19 04:44:44;;;;;;;9.93;5.18;;;;;;;1.41;79.18;99555.09;4956253;28;20559;-77
2024/01/19 04:47:10;;;;;;;8.55;5.07;;;;;;;1.44;79.17;99561.97;4973255;28;20133;-77
2024/01/19 04:49:37;;;;;;;9.73;5.55;;;;;;;1.48;78.98;99562.75;4973596;28;20042;-76
2024/01/19 04:52:04;;;;;;;8.48;5.18;;;;;;;1.50;79.23;99563.56;4973496;28;20062;-76
2024/01/19 04:54:30;;;;;;;10.98;4.88;;;;;;;1.53;79.41;99576.47;4973312;28;20070;-76
2024/01/19 04:56:57;;;;;;;11.10;5.78;;;;;;;1.56;79.11;99566.88;4972988;28;20074;-78
2024/01/19 04:59:23;;;;;;;10.40;5.40;;;;;;;1.60;79.20;99575.44;4955304;28;20046;-77
2024/01/19 05:01:50;;;;;;;11.63;5.68;;;;;;;1.62;79.57;99584.06;4955879;28;20407;-76
2024/01/19 05:04:16;;;;;;;16.50;6.30;;;;;;;1.65;79.46;99577.94;4955884;28;20484;-79
2024/01/19 05:06:43;;;;;;;10.48;5.93;;;;;;;1.66;78.98;99570.13;4973124;28;20055;-77
2024/01/19 05:09:10;;;;;;;8.00;5.68;;;;;;;1.68;79.10;99581.31;4973186;28;20058;-76
2024/01/19 05:11:36;;;;;;;9.77;5.57;;;;;;;1.71;79.01;99587.31;4972775;28;20104;-77
2024/01/19 05:14:05;;;;;;;8.63;5.43;;;;;;;1.73;79.00;99585.53;4973058;28;20046;-78
2024/01/19 05:16:31;;;;;;;8.73;5.70;;;;;;;1.74;79.03;99592.44;4955966;28;20085;-80
2024/01/19 05:18:58;;;;;;;10.00;5.13;;;;;;;1.75;78.97;99601.94;4972656;28;20045;-78
2024/01/19 05:21:25;;;;;;;10.73;5.93;;;;;;;1.76;78.44;99601.88;4972723;28;20070;-78
2024/01/19 05:23:51;;;;;;;11.48;5.97;;;;;;;1.77;78.74;99607.94;4972507;28;20106;-76
2024/01/19 05:26:18;;;;;;;11.48;6.25;;;;;;;1.78;78.82;99604.44;4957574;28;20101;-79
2024/01/19 05:28:44;;;;;;;12.18;6.20;;;;;;;1.78;78.82;99601.84;4972506;28;20047;-78
2024/01/19 05:31:11;;;;;;;13.27;6.50;;;;;;;1.77;78.73;99603.59;4972877;28;20046;-78
2024/01/19 05:33:38;;;;;;;10.30;6.38;;;;;;;1.77;78.81;99618.31;4972628;28;20134;-76
2024/01/19 05:36:06;;;;;;;9.07;5.97;;;;;;;1.77;78.95;99628.69;4972762;28;20047;-78
2024/01/19 05:38:33;;;;;;;8.95;5.57;;;;;;;1.79;79.02;99632.09;4972318;28;20125;-77
2024/01/19 05:41:01;;;;;;;10.68;6.88;;;;;;;1.78;78.92;99641.63;4972774;28;20047;-79
2024/01/19 05:43:28;;;;;;;11.65;6.57;;;;;;;1.79;79.09;99632.97;4972318;28;20137;-77
2024/01/19 05:45:55;;;;;;;9.60;6.28;;;;;;;1.81;79.12;99636.38;4972813;28;20051;-76
2024/01/19 05:48:22;;;;;;;10.50;6.40;;;;;;;1.80;79.23;99644.22;4972202;28;20086;-80
2024/01/19 05:50:50;;;;;;;9.65;6.97;;;;;;;1.80;78.86;99647.63;4955642;28;20047;-78
2024/01/19 05:53:16;;;;;;;10.23;7.03;;;;;;;1.81;79.03;99641.59;4954827;28;20066;-77
2024/01/19 05:55:43;;;;;;;9.65;6.90;;;;;;;1.82;79.35;99642.41;4972411;28;20090;-79
2024/01/19 05:58:09;;;;;;;10.05;7.00;;;;;;;1.83;79.51;99649.31;4972135;28;20050;-78
2024/01/19 06:00:36;;;;;;;9.57;6.88;;;;;;;1.84;79.09;99640.66;4954887;28;20078;-81
2024/01/19 06:03:02;;;;;;;13.05;7.18;;;;;;;1.86;79.61;99645.81;4954736;28;20047;-79
2024/01/19 06:05:30;;;;;;;11.70;7.20;;;;;;;1.88;79.47;99647.47;4955110;28;20440;-80
2024/01/19 06:07:57;;;;;;;8.45;6.65;;;;;;;1.88;79.70;99655.28;4954977;28;20437;-79
2024/01/19 06:10:24;;;;;;;9.98;6.60;;;;;;;1.90;80.07;99658.66;4971789;28;20050;-78
2024/01/19 06:12:50;;;;;;;8.98;6.53;;;;;;;1.93;79.83;99674.19;4971872;28;20141;-80
2024/01/19 06:15:17;;;;;;;9.73;6.95;;;;;;;1.97;80.41;99666.34;4971980;28;20089;-79
2024/01/19 06:17:43;;;;;;;11.02;6.97;;;;;;;1.98;80.10;99668.88;4972396;28;20111;-79
2024/01/19 06:20:11;;;;;;;10.73;6.68;;;;;;;1.99;79.77;99673.19;4954745;28;20519;-80
2024/01/19 06:22:37;;;;;;;10.15;7.47;;;;;;;2.01;79.32;99684.38;4971608;28;20058;-79
2024/01/19 06:25:04;;;;;;;7.97;6.75;;;;;;;2.02;79.67;99683.50;4972110;28;20061;-80
2024/01/19 06:27:31;;;;;;;9.02;6.60;;;;;;;2.04;79.68;99678.25;4954671;28;20051;-78
2024/01/19 06:29:57;;;;;;;9.25;6.82;;;;;;;2.03;79.51;99681.75;4971852;28;20054;-80
2024/01/19 06:32:24;;;;;;;9.18;6.32;;;;;;;2.05;79.20;99687.75;4971385;28;20138;-80
2024/01/19 06:34:51;;;;;;;10.20;6.40;;;;;;;2.05;80.04;99696.41;4954022;28;20047;-78
2024/01/19 06:37:17;;;;;;;13.23;6.30;;;;;;;2.06;79.73;99705.06;4971923;28;20057;-78
2024/01/19 06:39:47;;;;;;;10.00;6.43;;;;;;;2.07;79.54;99702.44;4971650;28;20046;-80
2024/01/19 06:42:13;;;;;;;8.32;6.00;;;;;;;2.11;80.26;99711.00;4971705;28;20046;-79
2024/01/19 06:44:43;;;;;;;9.00;6.75;;;;;;;2.12;79.34;99723.09;4971736;28;20054;-80
2024/01/19 06:47:10;;;;;;;10.02;6.13;;;;;;;2.15;79.87;99714.38;4971980;28;20548;-77
2024/01/19 06:49:36;;;;;;;10.55;6.88;;;;;;;2.16;80.13;99718.66;4971184;28;20042;-80
2024/01/19 06:52:06;;;;;;;10.60;6.25;;;;;;;2.17;79.99;99731.63;4971546;28;20046;-78
2024/01/19 06:54:33;;;;;;;11.18;6.70;;;;;;;2.19;79.65;99741.97;4971471;28;20706;-78
2024/01/19 06:56:59;;;;;;;14.20;7.35;;;;;;;2.20;79.79;99741.94;4971596;28;20137;-81
2024/01/19 06:59:26;;;;;;;11.20;7.38;;;;;;;2.21;79.75;99748.84;4971623;28;20070;-78
2024/01/19 07:01:53;;;;;;;10.63;7.82;;;;;;;2.23;79.68;99743.63;4971273;28;20054;-78
2024/01/19 07:04:19;;;;;;;11.80;7.70;;;;;;;2.21;79.30;99748.84;4970890;28;20153;-79
2024/01/19 07:06:46;;;;;;;12.10;7.18;;;;;;;2.21;79.03;99748.84;4971404;28;20551;-80
2024/01/19 07:09:13;;;;;;;13.07;7.78;;;;;;;2.19;78.71;99744.56;4971128;28;20051;-77
2024/01/19 07:11:40;;;;;;;10.77;7.35;;;;;;;2.16;78.80;99749.84;4971435;28;20477;-78
2024/01/19 07:14:07;;;;;;;15.25;7.97;;;;;;;2.11;78.33;99746.50;4971876;28;20051;-77
2024/01/19 07:16:38;;;;;;;10.88;7.40;;;;;;;2.05;77.83;99757.84;4971579;28;20171;-76
2024/01/19 07:19:05;;;;;;;11.60;7.47;;;;;;;2.02;78.20;99755.34;4971388;28;20126;-77
2024/01/19 07:21:37;;;;;;;10.45;7.80;;;;;;;1.95;77.59;99767.63;4954173;28;20101;-77
2024/01/19 07:24:06;;;;;;;13.77;7.10;;;;;;;1.91;78.41;99768.56;4974152;28;20110;-76
2024/01/19 07:26:33;;;;;;;11.30;7.63;;;;;;;1.87;78.50;99779.91;4974875;28;20070;-80
2024/01/19 07:29:04;;;;;;;14.27;8.02;;;;;;;1.81;78.19;99786.06;4958297;28;20043;-77
2024/01/19 07:31:31;;;;;;;11.00;7.07;;;;;;;1.76;78.00;99787.91;4974917;28;20369;-80
2024/01/19 07:33:57;;;;;;;11.23;7.78;;;;;;;1.71;78.28;99789.75;4957654;28;20062;-77
2024/01/19 07:36:25;;;;;;;10.43;6.97;;;;;;;1.66;77.93;99793.28;4957848;28;20047;-76
2024/01/19 07:38:52;;;;;;;9.40;6.90;;;;;;;1.62;78.20;99794.22;4974954;28;20058;-77
2024/01/19 07:41:18;;;;;;;11.55;7.28;;;;;;;1.57;78.12;99796.03;4974738;28;20050;-76
2024/01/19 07:43:45;;;;;;;11.02;6.90;;;;;;;1.54;77.99;99798.69;4974633;28;20134;-76
2024/01/19 07:46:14;;;;;;;8.57;6.68;;;;;;;1.50;78.21;99804.81;4974844;28;20138;-80
2024/01/19 07:48:41;;;;;;;9.88;6.28;;;;;;;1.46;78.40;99801.41;4974864;28;20047;-78
2024/01/19 07:51:08;;;;;;;10.88;6.60;;;;;;;1.42;77.87;99808.41;4957577;28;20191;-77
2024/01/19 07:53:34;;;;;;;10.85;6.88;;;;;;;1.39;78.03;99800.69;4957166;28;20105;-78
2024/01/19 07:56:01;;;;;;;9.23;6.45;;;;;;;1.36;78.69;99805.94;4957039;28;20399;-77
2024/01/19 07:58:28;;;;;;;11.07;6.93;;;;;;;1.33;78.50;99805.13;4974862;28;20046;-77
2024/01/19 08:00:54;;;;;;;9.73;6.95;;;;;;;1.31;78.20;99807.78;4974742;28;20039;-76
2024/01/19 08:03:21;;;;;;;15.50;6.63;;;;;;;1.28;78.68;99819.03;4974364;28;20051;-78
2024/01/19 08:05:48;;;;;;;11.00;6.88;;;;;;;1.25;78.60;99821.69;4957145;28;20054;-76
2024/01/19 08:08:15;;;;;;;11.35;7.07;;;;;;;1.23;78.50;99820.84;4974438;28;20049;-77
2024/01/19 08:10:41;;;;;;;10.75;6.88;;;;;;;1.22;78.89;99829.50;4937932;29;20051;-78
2024/01/19 08:13:08;;;;;;;12.35;6.97;;;;;;;1.21;78.46;99843.38;4969924;28;20046;-77
2024/01/19 08:15:35;;;;;;;9.25;6.63;;;;;;;1.20;78.93;99838.22;4974139;28;20047;-76
2024/01/19 08:18:02;;;;;;;13.93;7.50;;;;;;;1.18;78.85;99846.00;4973833;28;20480;-78
2024/01/19 08:20:29;;;;;;;15.43;7.40;;;;;;;1.19;79.26;99846.88;4973505;28;20042;-77
2024/01/19 08:22:56;;;;;;;10.20;7.35;;;;;;;1.19;78.92;99849.47;4974082;28;20478;-76
2024/01/19 08:25:23;;;;;;;13.10;7.35;;;;;;;1.19;79.32;99855.50;4956925;28;20071;-78
2024/01/19 08:27:50;;;;;;;10.50;7.00;;;;;;;1.19;79.65;99855.50;4974268;28;20057;-79
2024/01/19 08:30:18;;;;;;;9.90;6.68;;;;;;;1.21;79.67;99864.13;4974121;28;20145;-77
2024/01/19 08:32:45;;;;;;;11.93;6.97;;;;;;;1.22;79.02;99865.81;4973887;28;20051;-77
2024/01/19 08:35:12;;;;;;;10.60;7.40;;;;;;;1.22;79.15;99865.81;4973122;28;20047;-76
2024/01/19 08:37:40;;;;;;;15.48;7.22;;;;;;;1.23;79.42;99874.47;4973875;28;20051;-78
2024/01/19 08:40:08;;;;;;;11.15;6.95;;;;;;;1.22;79.06;99881.38;4973741;28;20061;-79
2024/01/19 08:42:36;;;;;;;9.88;7.20;;;;;;;1.24;79.21;99886.53;4956483;28;20051;-80
2024/01/19 08:45:03;;;;;;;11.10;7.07;;;;;;;1.25;79.04;99885.66;4956637;28;20082;-76
2024/01/19 08:47:30;;;;;;;12.43;6.65;;;;;;;1.24;79.36;99895.16;4956505;28;20043;-79
2024/01/19 08:49:59;;;;;;;10.48;6.82;;;;;;;1.25;79.18;99893.44;4973203;28;20058;-77
2024/01/19 08:52:29;;;;;;;13.05;7.07;;;;;;;1.25;78.96;99896.03;4973236;28;20463;-81
2024/01/19 08:54:56;;;;;;;9.75;7.20;;;;;;;1.26;78.80;99892.53;4956571;28;20050;-80
2024/01/19 08:57:23;;;;;;;12.20;7.45;;;;;;;1.26;79.06;99896.00;4973740;28;20199;-77
2024/01/19 08:59:51;;;;;;;15.95;7.82;;;;;;;1.26;79.26;99900.31;4956409;28;20050;-79
2024/01/19 09:02:18;;;;;;;13.05;7.97;;;;;;;1.27;79.22;99904.66;4956010;28;20097;-77
2024/01/19 09:04:45;;;;;;;11.60;7.88;;;;;;;1.25;79.06;99903.81;4973118;28;20054;-78
2024/01/19 09:07:12;;;;;;;10.70;7.82;;;;;;;1.27;79.26;99913.28;4956265;28;20051;-78
2024/01/19 09:09:41;;;;;;;14.55;8.00;;;;;;;1.27;79.26;99915.03;4973435;28;20039;-80
2024/01/19 09:12:08;;;;;;;14.57;8.25;;;;;;;1.27;79.03;99922.81;4956127;28;20050;-77
2024/01/19 09:14:34;;;;;;;12.85;8.23;;;;;;;1.28;79.68;99927.94;4955935;28;20047;-77
2024/01/19 09:17:01;;;;;;;14.00;8.15;;;;;;;1.29;79.54;99923.63;4973083;28;20046;-76
2024/01/19 09:19:27;;;;;;;17.08;8.70;;;;;;;1.30;79.59;99930.53;4972529;28;20483;-78
2024/01/19 09:21:54;;;;;;;16.00;8.00;;;;;;;1.31;79.81;99934.84;4972868;28;20049;-78
2024/01/19 09:24:20;;;;;;;14.70;9.23;;;;;;;1.32;79.18;99938.28;4973084;28;20137;-76
2024/01/19 09:26:47;;;;;;;15.15;9.85;;;;;;;1.33;79.36;99938.25;4972590;28;20117;-78
2024/01/19 09:29:13;;;;;;;12.57;9.30;;;;;;;1.34;79.60;99942.56;4973273;28;20134;-78
2024/01/19 09:31:44;;;;;;;13.15;8.60;;;;;;;1.35;79.39;99949.44;4972635;28;20047;-80
2024/01/19 09:34:11;;;;;;;12.90;8.40;;;;;;;1.37;79.84;99947.72;4972676;28;20054;-77
2024/01/19 09:36:38;;;;;;;15.98;8.88;;;;;;;1.39;79.90;99952.88;4973110;28;20078;-78
2024/01/19 09:39:06;;;;;;;19.05;9.10;;;;;;;1.41;80.14;99948.50;4972774;28;20051;-76
2024/01/19 09:42:00;;;;;;;15.63;8.95;;;;;;;1.39;78.18;99956.31;4955239;28;20085;-80
2024/01/19 09:44:36;;;;;;;14.63;8.10;;;;;;;1.44;78.86;99964.03;4972384;28;20067;-76
2024/01/19 09:47:16;;;;;;;14.27;7.90;;;;;;;1.47;78.95;99963.97;4972172;28;20098;-81
2024/01/19 09:49:54;;;;;;;13.18;7.85;;;;;;;1.51;79.47;99962.19;4972640;28;20487;-76
2024/01/19 09:52:39;;;;;;;11.93;7.32;;;;;;;1.53;79.00;99968.22;4972062;28;20070;-77
2024/01/19 09:55:09;;;;;;;12.48;8.20;;;;;;;1.60;79.84;99975.00;4972874;28;20046;-77
2024/01/19 09:57:45;;;;;;;11.90;7.90;;;;;;;1.63;79.77;99968.91;4955299;28;20109;-77
2024/01/19 10:00:17;;;;;;;13.30;7.93;;;;;;;1.68;79.39;99978.34;4972369;28;20126;-80
2024/01/19 10:02:46;;;;;;;14.77;8.35;;;;;;;1.72;80.02;99971.34;4972184;28;20090;-80
2024/01/19 10:05:16;;;;;;;15.82;8.20;;;;;;;1.75;79.58;99981.69;4972091;28;20384;-76
2024/01/19 10:07:45;;;;;;;13.18;8.30;;;;;;;1.77;79.81;99979.94;4955283;28;20062;-78
2024/01/19 10:10:12;;;;;;;13.20;8.68;;;;;;;1.84;80.12;99988.47;4955468;28;20062;-77
2024/01/19 10:12:39;;;;;;;12.95;8.63;;;;;;;1.87;79.60;99985.81;4955002;28;20046;-80
2024/01/19 10:15:10;;;;;;;13.50;8.77;;;;;;;1.89;79.40;99986.66;4972141;28;20122;-77
2024/01/19 10:17:37;;;;;;;15.82;8.43;;;;;;;1.95;80.19;99986.53;4972097;28;20559;-78
2024/01/19 10:20:05;;;;;;;18.15;7.82;;;;;;;2.01;80.29;99979.50;4954560;28;20054;-76
2024/01/19 10:22:32;;;;;;;12.90;7.90;;;;;;;2.05;80.16;99981.16;4971874;28;20047;-77
2024/01/19 10:25:00;;;;;;;13.02;7.63;;;;;;;2.11;80.39;99980.19;4971860;28;20055;-78
2024/01/19 10:27:44;;;;;;;16.17;7.25;;;;;;;2.13;78.46;99992.25;4972187;28;20061;-79
2024/01/19 10:30:23;;;;;;;13.90;7.47;;;;;;;2.22;79.90;99983.47;4971867;28;20129;-78
2024/01/19 10:33:06;;;;;;;13.85;7.18;;;;;;;2.27;78.13;99991.16;4971670;28;20121;-76
2024/01/19 10:35:36;;;;;;;17.35;7.80;;;;;;;2.33;79.49;99981.50;4971876;28;20082;-78
2024/01/19 10:38:07;;;;;;;11.63;7.97;;;;;;;2.39;79.40;99984.88;4972139;28;20050;-77
2024/01/19 10:40:34;;;;;;;16.92;7.75;;;;;;;2.42;79.49;99990.88;4971291;28;20039;-80
2024/01/19 10:43:01;;;;;;;21.33;8.40;;;;;;;2.46;79.54;99992.53;4971462;28;20492;-76
2024/01/19 10:45:29;;;;;;;15.40;7.50;;;;;;;2.48;79.10;99995.09;4954432;28;20074;-76
2024/01/19 10:48:01;;;;;;;12.65;8.25;;;;;;;2.51;78.56;99996.78;4972015;28;20110;-76
2024/01/19 10:50:30;;;;;;;17.13;8.63;;;;;;;2.56;79.12;100002.72;4954469;28;20543;-78
2024/01/19 10:52:59;;;;;;;13.90;7.60;;;;;;;2.60;79.43;100019.97;4971472;28;20058;-80
2024/01/19 10:55:30;;;;;;;16.38;8.43;;;;;;;2.64;77.89;100011.22;4971927;28;20090;-75
2024/01/19 10:58:13;;;;;;;11.70;8.23;;;;;;;2.68;77.37;100012.03;4974287;28;20102;-79
2024/01/19 11:00:39;;;;;;;14.33;9.37;;;;;;;2.74;79.04;100004.94;4975650;28;20061;-80
2024/01/19 11:03:06;;;;;;;14.27;8.95;;;;;;;2.79;78.44;100007.47;4975413;28;20658;-77
2024/01/19 11:05:34;;;;;;;18.50;9.07;;;;;;;2.83;79.15;100003.06;4975517;28;20434;-76
2024/01/19 11:08:02;;;;;;;18.10;8.70;;;;;;;2.89;78.57;100008.13;4975350;28;20395;-76
2024/01/19 11:10:31;;;;;;;18.63;9.35;;;;;;;2.93;79.20;100003.72;4975490;28;20427;-75
2024/01/19 11:13:00;;;;;;;15.60;9.48;;;;;;;3.00;79.88;100010.50;4974843;28;20050;-76
2024/01/19 11:15:40;;;;;;;13.90;9.00;;;;;;;3.09;79.76;100018.09;4958413;28;20050;-77
2024/01/19 11:18:06;;;;;;;16.27;8.55;;;;;;;3.21;80.42;100019.56;4975367;28;20376;-79
2024/01/19 11:20:34;;;;;;;19.77;10.25;;;;;;;3.33;80.57;100021.03;4975590;28;20046;-78
2024/01/19 11:23:02;;;;;;;20.05;9.50;;;;;;;3.48;81.58;100013.78;4974794;28;20125;-80
2024/01/19 11:26:07;;;;;;;20.20;11.00;;;;;;;3.67;77.81;100022.03;4975150;28;20399;-77
2024/01/19 11:28:40;;;;;;;19.58;10.40;;;;;;;3.99;82.25;100020.34;4974937;28;20043;-77
2024/01/19 11:31:14;;;;;;;16.40;9.95;;;;;;;4.35;83.73;100029.00;4975450;28;20130;-77
2024/01/19 11:33:42;;;;;;;17.73;9.93;;;;;;;4.80;87.73;100031.25;4974572;28;20050;-79
2024/01/19 11:36:09;;;;;;;18.67;9.85;;;;;;;5.29;89.14;100035.91;4958187;28;20069;-78
2024/01/19 11:38:36;;;;;;;12.88;8.48;;;;;;;5.83;90.26;100045.56;4975107;28;20057;-77